Libertyville, Alabama
Current Conditions -  °F | °C
As of 6:08 PM on Sunday 23 Nov 2014 (Local Time) from K79J Reporting Station
Scattered Clouds Scattered Clouds  
Wind Chill: 64°   Ceiling: Unl
Heat Index: 64°   Visibility: 10mi
Dew Point: 61°   Wind: 3mph
Humidity: 88%   Direction: NA
Pressure: 29.74"   Gusts: NA
Location:  31.1836°N, 86.5372°W
Report Text: K79J 240008Z AUTO VRB03KT 10SM SCT017 18/16 A2974 RMK AO2
Loading
Personal Weather Stations






























Interactive Weather Map New forecast layout! Learn more

10-Day Weather Forecast

Advertisements
Track Severe Weather on mobile